Main page
METAR-TAF:

METAR-TAF

Airports :

Al-Ahsa International Airport

Al-Hasa, Saudi Arabia

latitude: 25-18N, longitude: 049-29E, elevation: 179 m

Current weather observation

The report was made 50 minutes ago, at 09:00 UTC
Wind 18 kt from the North
Temperature 25°C
Humidity 50%
Pressure 1019 hPa
Visibility 10 km or more
no clouds below 1500 m and no cumulonimbus

METAR: OEAH 170900Z 35018KT CAVOK 25/14 Q1019 NOSIG

Time: 12:50 (09:50 UTC)

Forecast

The report was made 10 hours and 50 minutes ago, at 23:00 UTC
Forecast valid from 17 at 00 UTC to 18 at 06 UTC
Wind 6 kt from the North/Northeast with gusts up to 16 kt
Visibility: 8000 m
Scattered clouds at a height of 4000 ft
Temporary
from 17 at 00 UTC to 17 at 05 UTC
Visibility: 4000 m
Scattered clouds at a height of 2000 ft
mist

TAF: OEAH 162300Z 1700/1806 02006G16KT 8000 SCT040 TEMPO 1700/1705 4000 BR SCT020

Weather observations and forecasts of more than 4000 airports (METAR and TAF reports).

The available stations are represented by yellow and red dots on the map.

Hover mouse over dot to see the name of the station.

Then click to see weather observations and forecasts.

To change the map : click on the green buttons with a black cross to zoom in, on the green button with a dash to zoom out, or on the green arrows for adjacent maps.


METAR-TAF: